Time;durP1;ratioP1;P1;durP2;ratioP2;P2;SDS_P1;SDS_P2;PMS_P1;PMS_P2;Temp;Humidity;BMP_temperature;BMP_pressure;BME280_temperature;BME280_humidity;BME280_pressure;Samples;Min_cycle;Max_cycle;Signal;HPM_P1;HPM_P2
2022/10/21 00:00:24;;;;;;;3.88;1.40;;;;;;;22.90;51.99;100578.75;5075155;28;20059;-66
2022/10/21 00:02:49;;;;;;;1.38;0.80;;;;;;;22.90;52.39;100595.97;5073503;28;20474;-67
2022/10/21 00:05:14;;;;;;;3.13;0.70;;;;;;;22.93;52.36;100586.50;5073481;28;20455;-66
2022/10/21 00:07:40;;;;;;;6.43;1.02;;;;;;;22.98;51.74;100581.22;5074788;28;20123;-67
2022/10/21 00:10:06;;;;;;;0.98;0.70;;;;;;;23.04;52.23;100577.63;5074837;28;20020;-66
2022/10/21 00:12:32;;;;;;;4.30;0.85;;;;;;;23.11;51.98;100570.28;5074619;28;20039;-66
2022/10/21 00:14:57;;;;;;;4.45;1.17;;;;;;;23.18;51.86;100565.59;5056709;28;20028;-66
2022/10/21 00:17:23;;;;;;;1.60;1.02;;;;;;;23.17;50.85;100539.34;5073278;28;20036;-66
2022/10/21 00:19:48;;;;;;;1.55;1.00;;;;;;;23.30;51.05;100547.47;5073329;28;20043;-66
2022/10/21 00:22:14;;;;;;;4.00;1.50;;;;;;;23.38;51.40;100543.66;5073415;28;20028;-66
2022/10/21 00:24:39;;;;;;;4.40;1.20;;;;;;;23.43;51.32;100555.59;5073306;28;20470;-66
2022/10/21 00:27:04;;;;;;;1.05;0.88;;;;;;;23.47;51.46;100554.13;5073218;28;20119;-66
2022/10/21 00:29:30;;;;;;;2.60;1.20;;;;;;;23.50;51.21;100559.16;5073192;28;20070;-66
2022/10/21 00:31:55;;;;;;;2.60;1.17;;;;;;;23.53;51.19;100546.94;5073098;28;20055;-66
2022/10/21 00:34:21;;;;;;;3.28;0.90;;;;;;;23.54;50.15;100554.06;5072922;28;20036;-66
2022/10/21 00:36:46;;;;;;;1.45;0.70;;;;;;;23.55;50.22;100542.91;5056284;28;20023;-66
2022/10/21 00:39:12;;;;;;;5.28;0.68;;;;;;;23.56;50.49;100552.78;5072885;28;20025;-66
2022/10/21 00:41:37;;;;;;;1.92;0.70;;;;;;;23.57;50.33;100542.69;5074229;28;20447;-66
2022/10/21 00:44:06;;;;;;;4.20;0.80;;;;;;;23.58;50.07;100544.38;5072936;28;20078;-67
2022/10/21 00:46:42;;;;;;;1.20;0.70;;;;;;;23.54;50.16;100538.50;5074195;28;20107;-67
2022/10/21 00:49:37;;;;;;;1.23;0.60;;;;;;;23.58;50.16;100539.75;5073994;28;20013;-66
2022/10/21 00:52:03;;;;;;;2.60;0.70;;;;;;;23.58;50.10;100544.38;5068994;28;20398;-66
2022/10/21 00:54:29;;;;;;;1.60;0.60;;;;;;;23.59;49.57;100524.19;5072684;28;20375;-66
2022/10/21 00:56:55;;;;;;;2.13;0.63;;;;;;;23.55;50.57;100529.25;5073880;28;20024;-67
2022/10/21 00:59:23;;;;;;;4.28;1.08;;;;;;;23.51;50.20;100511.59;5055774;28;20052;-66
2022/10/21 01:01:49;;;;;;;4.28;1.02;;;;;;;23.58;49.91;100519.75;5055928;28;20045;-66
2022/10/21 01:04:14;;;;;;;1.20;0.60;;;;;;;23.57;49.34;100516.19;5072142;28;20402;-66
2022/10/21 01:06:39;;;;;;;5.25;0.75;;;;;;;23.54;49.36;100505.69;5073780;28;20085;-66
2022/10/21 01:09:05;;;;;;;0.93;0.80;;;;;;;23.57;50.27;100507.97;5073660;28;20059;-66
2022/10/21 01:11:38;;;;;;;4.63;0.70;;;;;;;23.56;49.29;100500.81;5072592;28;20032;-66
2022/10/21 01:14:06;;;;;;;;;;;;;;;23.55;49.24;100488.22;5072833;28;20032;-66
2022/10/21 01:16:53;;;;;;;1.67;0.68;;;;;;;23.53;49.32;100498.56;5073663;28;20289;-67
2022/10/21 01:19:18;;;;;;;3.35;0.70;;;;;;;23.45;49.49;100485.13;5073447;28;20029;-65
2022/10/21 01:21:51;;;;;;;2.20;0.85;;;;;;;23.45;49.84;100496.06;5073539;28;20099;-65
2022/10/21 01:24:29;;;;;;;;;;;;;;;23.44;49.27;100499.88;5056194;28;20377;-65
2022/10/21 01:27:04;;;;;;;2.83;1.25;;;;;;;23.42;49.09;100495.69;5073411;28;19961;-65
2022/10/21 01:30:01;;;;;;;0.68;0.50;;;;;;;23.35;49.99;100478.44;5072357;28;20470;-65
2022/10/21 01:32:50;;;;;;;2.72;0.80;;;;;;;23.38;50.00;100473.41;5073657;28;20434;-65
2022/10/21 01:35:39;;;;;;;1.63;0.70;;;;;;;23.34;49.87;100466.66;5067530;28;20075;-65
2022/10/21 01:38:07;;;;;;;2.15;0.70;;;;;;;23.31;49.35;100458.91;5073185;28;20028;-66
2022/10/21 01:40:58;;;;;;;5.45;0.85;;;;;;;23.26;49.28;100461.47;5073386;28;20043;-65
2022/10/21 01:43:45;;;;;;;2.08;1.02;;;;;;;23.25;49.74;100462.56;5071995;28;20047;-65
2022/10/21 01:46:58;;;;;;;2.60;0.63;;;;;;;23.25;50.06;100467.19;5073087;28;20398;-65
2022/10/21 01:49:29;;;;;;;1.25;0.75;;;;;;;23.21;49.52;100455.84;5009964;28;20036;-65
2022/10/21 01:51:55;;;;;;;3.60;0.80;;;;;;;23.19;49.42;100449.75;5073137;28;20118;-66
2022/10/21 01:54:28;;;;;;;1.17;0.45;;;;;;;23.22;49.36;100443.84;5072089;28;20111;-66
2022/10/21 01:56:54;;;;;;;2.15;0.70;;;;;;;23.24;49.34;100444.47;5055101;28;20113;-66
2022/10/21 01:59:20;;;;;;;3.65;1.00;;;;;;;23.23;49.82;100441.97;5071862;28;20032;-65
2022/10/21 02:01:47;;;;;;;1.55;0.88;;;;;;;23.17;49.11;100440.94;5072101;28;20052;-65
2022/10/21 02:04:14;;;;;;;1.42;0.70;;;;;;;23.15;49.51;100434.84;5066293;28;20493;-66
2022/10/21 02:06:39;;;;;;;0.98;0.63;;;;;;;23.18;49.07;100437.97;5055224;28;20028;-65
2022/10/21 02:09:05;;;;;;;5.57;0.80;;;;;;;23.19;49.88;100447.03;5055086;28;20367;-65
2022/10/21 02:11:33;;;;;;;3.58;0.65;;;;;;;23.18;49.20;100437.97;5038356;28;20032;-65
2022/10/21 02:14:05;;;;;;;1.75;0.65;;;;;;;23.20;49.09;100448.69;5039740;28;20082;-64
2022/10/21 02:16:36;;;;;;;1.27;0.60;;;;;;;23.18;49.25;100434.41;5059202;28;20440;-65
2022/10/21 02:19:01;;;;;;;2.38;1.05;;;;;;;23.20;49.57;100448.69;5042257;28;20119;-65
2022/10/21 02:21:29;;;;;;;5.38;0.85;;;;;;;23.18;48.62;100440.72;5076804;28;20458;-67
2022/10/21 02:24:08;;;;;;;2.25;0.50;;;;;;;23.15;49.57;100435.69;5058890;28;20032;-66
2022/10/21 02:26:33;;;;;;;1.60;0.80;;;;;;;23.13;49.54;100434.25;5076799;28;20032;-66
2022/10/21 02:28:59;;;;;;;2.28;0.47;;;;;;;23.10;49.27;100437.41;5058910;28;20028;-66
2022/10/21 02:31:47;;;;;;;1.80;0.75;;;;;;;23.07;49.02;100438.69;5042074;28;20115;-66
2022/10/21 02:34:29;;;;;;;1.85;0.57;;;;;;;23.02;48.40;100451.34;5076616;28;20047;-66
2022/10/21 02:36:57;;;;;;;2.38;0.60;;;;;;;22.97;49.07;100437.50;5076739;28;20082;-66
2022/10/21 02:39:39;;;;;;;1.67;0.95;;;;;;;22.90;48.51;100442.16;5076357;28;20024;-67
2022/10/21 02:42:06;;;;;;;10.52;1.02;;;;;;;22.84;48.62;100443.00;5058555;28;20020;-66
2022/10/21 02:44:32;;;;;;;3.25;0.65;;;;;;;22.78;49.43;100443.91;5058698;28;20032;-66
2022/10/21 02:46:57;;;;;;;3.00;0.52;;;;;;;22.71;49.21;100437.63;5058578;28;20036;-66
2022/10/21 02:49:23;;;;;;;5.32;1.38;;;;;;;22.62;49.20;100440.56;5076275;28;20041;-67
2022/10/21 02:51:48;;;;;;;0.70;0.70;;;;;;;22.52;49.34;100426.56;5076213;28;20039;-67
2022/10/21 02:54:14;;;;;;;0.93;0.68;;;;;;;22.47;49.00;100440.00;5058377;28;20030;-66
2022/10/21 02:56:39;;;;;;;0.55;0.55;;;;;;;22.41;48.62;100429.97;5041581;28;20462;-66
2022/10/21 02:59:04;;;;;;;1.75;0.70;;;;;;;22.37;48.37;100431.44;5058210;28;20039;-66
2022/10/21 03:01:30;;;;;;;5.32;0.90;;;;;;;22.35;49.09;100433.56;5076043;28;20028;-65
2022/10/21 03:03:55;;;;;;;3.00;0.75;;;;;;;22.32;48.77;100431.25;5075807;28;20139;-67
2022/10/21 03:06:20;;;;;;;2.30;0.60;;;;;;;22.27;48.57;100428.34;5058345;28;20040;-65
2022/10/21 03:08:46;;;;;;;1.30;0.55;;;;;;;22.26;49.38;100429.38;5075959;28;20024;-65
2022/10/21 03:11:11;;;;;;;6.97;0.77;;;;;;;22.23;49.49;100424.34;5075861;28;20366;-66
2022/10/21 03:13:37;;;;;;;2.78;0.80;;;;;;;22.18;49.48;100426.88;5058157;28;20044;-66
2022/10/21 03:16:02;;;;;;;2.53;0.80;;;;;;;22.12;49.54;100418.72;5075909;28;20031;-65
2022/10/21 03:18:27;;;;;;;4.78;0.70;;;;;;;22.03;49.06;100408.03;5075687;28;20029;-65
2022/10/21 03:20:53;;;;;;;4.25;1.02;;;;;;;22.03;48.61;100429.00;5075640;28;20024;-66
2022/10/21 03:23:19;;;;;;;7.03;0.95;;;;;;;21.98;49.49;100424.22;5058005;28;20405;-66
2022/10/21 03:25:49;;;;;;;2.70;0.63;;;;;;;21.93;49.69;100421.28;5075017;28;20031;-66
2022/10/21 03:28:14;;;;;;;2.92;0.80;;;;;;;21.87;48.70;100424.00;5057945;28;20021;-65
2022/10/21 03:30:40;;;;;;;1.15;0.70;;;;;;;21.77;49.59;100418.13;5057812;28;20025;-65
2022/10/21 03:33:05;;;;;;;5.75;0.80;;;;;;;21.74;49.70;100421.28;5075605;28;20025;-66
2022/10/21 03:35:30;;;;;;;5.63;0.95;;;;;;;21.71;49.66;100421.69;5075573;28;20028;-65
2022/10/21 03:37:56;;;;;;;4.40;1.10;;;;;;;21.63;48.88;100416.47;5041040;28;20032;-65
2022/10/21 03:40:29;;;;;;;3.97;0.80;;;;;;;21.60;49.73;100414.16;5075487;28;20486;-65
2022/10/21 03:42:57;;;;;;;;;;;;;;;21.54;49.22;100417.72;5075861;28;20033;-65
2022/10/21 03:45:25;;;;;;;2.40;0.77;;;;;;;21.51;49.27;100412.69;5057727;28;20388;-65
2022/10/21 03:47:51;;;;;;;2.22;0.73;;;;;;;21.48;49.39;100413.94;5040878;28;20477;-65
2022/10/21 03:50:17;;;;;;;4.18;1.05;;;;;;;21.45;49.37;100414.38;5057533;28;20437;-65
2022/10/21 03:52:42;;;;;;;0.80;0.50;;;;;;;21.42;49.98;100415.63;5075152;28;20047;-65
2022/10/21 03:55:08;;;;;;;1.88;0.88;;;;;;;21.42;49.41;100421.09;5075152;28;20470;-65
2022/10/21 03:57:33;;;;;;;3.75;0.88;;;;;;;21.38;49.88;100414.34;5074900;28;20060;-65
2022/10/21 03:59:58;;;;;;;1.17;0.52;;;;;;;21.36;50.15;100424.63;5074938;28;20054;-65
2022/10/21 04:02:24;;;;;;;4.50;0.98;;;;;;;21.31;50.03;100424.44;5057021;28;20032;-65
2022/10/21 04:04:49;;;;;;;4.63;1.00;;;;;;;21.26;49.71;100421.50;5074806;28;20084;-65
2022/10/21 04:07:15;;;;;;;5.20;0.80;;;;;;;21.23;50.14;100421.91;5057122;28;20032;-65
2022/10/21 04:09:40;;;;;;;2.92;0.98;;;;;;;21.20;49.33;100426.94;5057032;28;20028;-65
2022/10/21 04:12:09;;;;;;;0.75;0.75;;;;;;;21.18;49.51;100427.16;5057632;28;20020;-66
2022/10/21 04:14:34;;;;;;;2.17;0.93;;;;;;;21.15;49.23;100424.84;5057346;28;20032;-65
2022/10/21 04:17:00;;;;;;;9.98;1.30;;;;;;;21.13;49.12;100426.09;5057146;28;20032;-65
2022/10/21 04:19:25;;;;;;;4.90;1.00;;;;;;;21.09;49.34;100431.13;5056968;28;20531;-65
2022/10/21 04:21:50;;;;;;;4.65;1.02;;;;;;;21.04;49.91;100430.88;5040192;28;20020;-65
2022/10/21 04:24:19;;;;;;;0.57;0.57;;;;;;;21.07;49.81;100432.34;5056828;28;20498;-68
2022/10/21 04:26:44;;;;;;;3.13;1.30;;;;;;;21.02;49.44;100430.22;5057025;28;20547;-65
2022/10/21 04:29:09;;;;;;;1.05;0.77;;;;;;;21.01;49.49;100438.59;5040042;28;20108;-65
2022/10/21 04:31:35;;;;;;;1.25;1.00;;;;;;;20.99;50.17;100435.25;5056616;28;20093;-65
2022/10/21 04:34:00;;;;;;;2.53;0.60;;;;;;;20.96;49.65;100431.06;5074480;28;20086;-65
2022/10/21 04:36:26;;;;;;;4.40;0.80;;;;;;;20.92;50.21;100430.63;5056174;28;20032;-66
2022/10/21 04:38:51;;;;;;;3.97;0.80;;;;;;;20.82;50.55;100413.88;5055999;28;20031;-65
2022/10/21 04:41:16;;;;;;;3.17;0.93;;;;;;;20.86;49.65;100430.59;5039752;28;20112;-66
2022/10/21 04:43:42;;;;;;;3.72;1.02;;;;;;;20.83;50.21;100425.56;5074256;28;20068;-66
2022/10/21 04:46:14;;;;;;;6.47;1.10;;;;;;;20.82;50.17;100423.91;5074072;28;20040;-65
2022/10/21 04:48:39;;;;;;;3.60;1.02;;;;;;;20.77;49.53;100410.09;5074237;28;20023;-65
2022/10/21 04:51:05;;;;;;;1.92;1.10;;;;;;;20.82;49.71;100418.47;5074077;28;20033;-65
2022/10/21 04:53:31;;;;;;;6.93;1.80;;;;;;;20.83;49.77;100417.41;5056537;28;20030;-65
2022/10/21 04:55:56;;;;;;;3.17;1.35;;;;;;;20.78;50.57;100401.69;5039395;28;20016;-65
2022/10/21 04:58:22;;;;;;;1.20;1.08;;;;;;;20.78;49.75;100406.28;5073958;28;20051;-65
2022/10/21 05:00:48;;;;;;;4.45;1.10;;;;;;;20.84;50.30;100400.03;5056036;28;20393;-65
2022/10/21 05:03:14;;;;;;;4.13;1.20;;;;;;;20.84;50.06;100400.03;5073793;28;20031;-66
2022/10/21 05:05:39;;;;;;;2.50;0.90;;;;;;;20.80;49.92;100401.47;5056045;28;20482;-65
2022/10/21 05:08:04;;;;;;;10.05;1.60;;;;;;;20.85;50.61;100396.28;5056231;28;20039;-65
2022/10/21 05:10:30;;;;;;;1.50;0.88;;;;;;;20.84;50.30;100383.69;5055995;28;20066;-65
2022/10/21 05:12:56;;;;;;;4.13;1.30;;;;;;;20.87;50.03;100392.28;5073552;28;20021;-65
2022/10/21 05:15:22;;;;;;;5.45;1.90;;;;;;;20.89;50.94;100392.06;5073639;28;20103;-65
2022/10/21 05:17:47;;;;;;;7.88;1.73;;;;;;;20.85;50.58;100388.09;5055845;28;20480;-65
2022/10/21 05:20:13;;;;;;;6.70;1.40;;;;;;;20.92;50.41;100391.66;5055757;28;20056;-65
2022/10/21 05:22:38;;;;;;;4.18;1.70;;;;;;;20.92;50.40;100391.66;5073628;28;20039;-66
2022/10/21 05:25:04;;;;;;;3.85;1.30;;;;;;;20.87;50.63;100383.28;5047191;28;20047;-65
2022/10/21 05:27:29;;;;;;;4.88;0.90;;;;;;;20.89;51.00;100370.28;5035718;28;20501;-63
2022/10/21 05:29:57;;;;;;;2.47;0.95;;;;;;;20.92;50.84;100375.31;5053457;28;20082;-64
2022/10/21 05:32:22;;;;;;;1.80;1.20;;;;;;;20.90;50.13;100371.97;5053430;28;20062;-63
2022/10/21 05:34:48;;;;;;;2.17;1.10;;;;;;;20.88;51.23;100368.63;5035639;28;20029;-65
2022/10/21 05:37:13;;;;;;;5.03;1.88;;;;;;;20.92;51.13;100364.44;5035730;28;20102;-63
2022/10/21 05:39:38;;;;;;;3.22;1.52;;;;;;;20.93;50.96;100366.13;5035650;28;20036;-64
2022/10/21 05:42:04;;;;;;;3.58;1.63;;;;;;;20.94;51.20;100367.78;5053334;28;20505;-63
2022/10/21 05:44:29;;;;;;;9.93;1.85;;;;;;;20.94;50.81;100362.34;5053482;28;20488;-64
2022/10/21 05:46:54;;;;;;;3.88;2.40;;;;;;;20.94;51.27;100361.50;5053143;28;20083;-64
2022/10/21 05:49:20;;;;;;;2.67;1.40;;;;;;;20.93;51.07;100352.50;5052845;28;20025;-65
2022/10/21 05:51:45;;;;;;;3.92;2.17;;;;;;;20.93;50.64;100349.78;5053253;28;20068;-64
2022/10/21 05:54:11;;;;;;;5.18;1.85;;;;;;;20.89;50.97;100341.19;5035277;28;20482;-64
2022/10/21 05:56:36;;;;;;;2.15;1.33;;;;;;;20.88;50.74;100335.97;5053411;28;20029;-64
2022/10/21 05:59:05;;;;;;;9.15;1.90;;;;;;;20.90;51.39;100350.19;5053304;28;20033;-64
2022/10/21 06:01:30;;;;;;;3.30;1.33;;;;;;;20.89;50.39;100348.50;5053036;28;20053;-64
2022/10/21 06:03:55;;;;;;;1.75;1.00;;;;;;;20.87;50.58;100351.44;5052772;28;20075;-64
2022/10/21 06:06:21;;;;;;;3.85;1.58;;;;;;;20.85;51.19;100353.53;5053054;28;20075;-64
2022/10/21 06:08:46;;;;;;;3.67;1.80;;;;;;;20.85;50.38;100353.53;5052977;28;20025;-64
2022/10/21 06:11:14;;;;;;;4.03;1.67;;;;;;;20.84;51.12;100359.19;5052946;28;20458;-64
2022/10/21 06:13:40;;;;;;;4.00;1.38;;;;;;;20.83;51.33;100358.34;5035302;28;20150;-64
2022/10/21 06:16:06;;;;;;;2.58;1.40;;;;;;;20.81;51.17;100365.03;5053020;28;20025;-64
2022/10/21 06:18:32;;;;;;;3.08;2.08;;;;;;;20.76;51.22;100367.56;5052818;28;20029;-64
2022/10/21 06:20:58;;;;;;;3.33;1.48;;;;;;;20.79;51.00;100389.78;5052879;28;20033;-64
2022/10/21 06:23:23;;;;;;;3.35;2.00;;;;;;;20.79;51.41;100413.44;5052850;28;20037;-64
2022/10/21 06:26:00;;;;;;;8.00;1.73;;;;;;;20.79;51.71;100406.09;5052745;28;20033;-64
2022/10/21 06:28:26;;;;;;;4.30;1.77;;;;;;;20.82;51.45;100411.13;5052812;28;20070;-64
2022/10/21 06:30:52;;;;;;;5.05;2.17;;;;;;;20.85;51.19;100412.59;5052718;28;20025;-64
2022/10/21 06:33:18;;;;;;;4.68;1.85;;;;;;;20.92;51.45;100406.13;5052727;28;20032;-64
2022/10/21 06:35:43;;;;;;;4.75;1.52;;;;;;;20.97;51.35;100420.97;5052710;28;20436;-64
2022/10/21 06:38:08;;;;;;;3.92;2.28;;;;;;;20.99;51.15;100413.47;5034906;28;20475;-65
2022/10/21 06:40:34;;;;;;;5.50;2.17;;;;;;;21.01;51.64;100412.22;5052701;28;20078;-64
2022/10/21 06:43:00;;;;;;;8.50;2.35;;;;;;;20.99;51.84;100400.69;5052642;28;20036;-64
2022/10/21 06:45:25;;;;;;;5.90;2.58;;;;;;;21.05;51.10;100410.75;5034957;28;20037;-64
2022/10/21 06:47:50;;;;;;;9.65;2.65;;;;;;;21.05;51.32;100410.75;5034780;28;20130;-64
2022/10/21 06:50:17;;;;;;;9.98;2.22;;;;;;;21.08;51.66;100413.09;5044943;28;20031;-65
2022/10/21 06:52:42;;;;;;;6.38;2.80;;;;;;;21.07;51.60;100407.81;5072681;28;20029;-69
2022/10/21 06:55:08;;;;;;;8.10;2.50;;;;;;;21.09;51.16;100420.22;5054699;28;20393;-64
2022/10/21 06:57:33;;;;;;;6.32;2.42;;;;;;;21.06;50.98;100412.44;5054757;28;20094;-64
2022/10/21 06:59:59;;;;;;;4.13;2.20;;;;;;;21.12;50.98;100424.41;5072409;28;20025;-64
2022/10/21 07:02:24;;;;;;;8.38;2.42;;;;;;;21.11;51.89;100429.00;5075881;28;20535;-64
2022/10/21 07:04:51;;;;;;;10.10;3.10;;;;;;;21.13;50.87;100429.66;5075939;28;20420;-64
2022/10/21 07:07:17;;;;;;;3.75;2.28;;;;;;;21.12;50.96;100430.72;5058401;28;20492;-64
2022/10/21 07:09:43;;;;;;;7.28;2.67;;;;;;;21.12;51.18;100427.13;5057989;28;20437;-64
2022/10/21 07:12:08;;;;;;;4.97;2.47;;;;;;;21.11;51.77;100418.13;5041510;28;20056;-64
2022/10/21 07:14:34;;;;;;;6.82;2.25;;;;;;;21.16;51.30;100418.31;5076007;28;20043;-64
2022/10/21 07:16:59;;;;;;;7.53;1.85;;;;;;;21.19;51.37;100423.38;5075882;28;20043;-64
2022/10/21 07:19:24;;;;;;;11.35;1.95;;;;;;;21.22;51.88;100431.13;5075748;28;20169;-64
2022/10/21 07:21:50;;;;;;;8.15;1.88;;;;;;;21.19;51.86;100420.63;5075760;28;20028;-64
2022/10/21 07:24:16;;;;;;;3.60;2.35;;;;;;;21.26;51.63;100431.56;5058042;28;20445;-64
2022/10/21 07:26:41;;;;;;;7.03;1.95;;;;;;;21.25;51.23;100418.97;5075760;28;20042;-64
2022/10/21 07:29:07;;;;;;;5.88;2.13;;;;;;;21.28;51.70;100435.75;5057659;28;20032;-64
2022/10/21 07:31:35;;;;;;;5.35;2.13;;;;;;;21.28;52.00;100441.19;5057727;28;20035;-64
2022/10/21 07:34:02;;;;;;;3.53;1.60;;;;;;;21.25;51.85;100441.59;5057709;28;20036;-64
2022/10/21 07:36:31;;;;;;;3.67;1.58;;;;;;;21.27;51.24;100439.50;5040931;28;20024;-64
2022/10/21 07:38:59;;;;;;;3.03;1.83;;;;;;;21.29;51.74;100426.53;5040881;28;20389;-68
2022/10/21 07:41:30;;;;;;;7.03;1.58;;;;;;;21.31;51.18;100435.34;5075393;28;20103;-64
2022/10/21 07:43:56;;;;;;;3.83;1.92;;;;;;;21.33;51.72;100433.22;5075324;28;20044;-64
2022/10/21 07:46:22;;;;;;;5.50;2.03;;;;;;;21.37;51.75;100441.84;5057420;28;20038;-64
2022/10/21 07:48:48;;;;;;;5.35;2.25;;;;;;;21.39;51.27;100443.31;5057409;28;20111;-64
2022/10/21 07:51:16;;;;;;;5.30;2.67;;;;;;;21.42;51.21;100431.97;5057361;28;20031;-64
2022/10/21 07:53:41;;;;;;;8.10;2.47;;;;;;;21.42;51.42;100429.25;5057316;28;20435;-64
2022/10/21 07:56:35;;;;;;;6.20;2.05;;;;;;;21.47;52.16;100423.16;5075059;28;20028;-64
2022/10/21 07:59:01;;;;;;;4.10;2.00;;;;;;;21.49;51.38;100415.66;5070864;28;20448;-64
2022/10/21 08:01:27;;;;;;;8.63;3.30;;;;;;;21.58;51.42;100424.44;5057206;28;20029;-64
2022/10/21 08:03:54;;;;;;;3.80;2.38;;;;;;;21.64;51.36;100426.31;5074856;28;20063;-64
2022/10/21 08:06:20;;;;;;;7.32;2.38;;;;;;;21.69;51.19;100432.00;5057116;28;20071;-64
2022/10/21 08:08:45;;;;;;;5.93;2.35;;;;;;;21.72;52.20;100437.84;5057010;28;20040;-65
2022/10/21 08:11:11;;;;;;;7.18;3.00;;;;;;;21.77;51.34;100434.50;5074489;28;20028;-64
2022/10/21 08:13:40;;;;;;;11.65;2.67;;;;;;;21.81;51.34;100436.56;5056913;28;20509;-65
2022/10/21 08:16:06;;;;;;;7.72;2.42;;;;;;;21.86;51.24;100441.41;5057311;28;20024;-64
2022/10/21 08:18:31;;;;;;;4.88;2.88;;;;;;;21.90;52.04;100445.41;5074551;28;20032;-63
2022/10/21 08:20:57;;;;;;;4.28;2.25;;;;;;;21.93;52.06;100445.00;5074577;28;20031;-64
2022/10/21 08:23:23;;;;;;;10.75;3.15;;;;;;;21.95;51.80;100442.88;5040035;28;20024;-64
2022/10/21 08:25:53;;;;;;;19.23;3.42;;;;;;;21.99;51.11;100445.00;5056720;28;20386;-64
2022/10/21 08:28:20;;;;;;;10.60;3.00;;;;;;;22.02;51.98;100460.09;5074430;28;20024;-64
2022/10/21 08:30:45;;;;;;;10.75;2.35;;;;;;;22.04;51.18;100475.19;5056530;28;20035;-63
2022/10/21 08:33:11;;;;;;;7.53;2.53;;;;;;;22.04;51.77;100479.81;5056472;28;20395;-65
2022/10/21 08:35:37;;;;;;;10.40;2.90;;;;;;;22.04;51.36;100474.34;5074409;28;20024;-64
2022/10/21 08:38:03;;;;;;;3.35;2.63;;;;;;;22.09;51.38;100462.78;5056389;28;20107;-64
2022/10/21 08:40:34;;;;;;;5.68;3.70;;;;;;;22.12;51.91;100462.38;5074024;28;20028;-64
2022/10/21 08:43:07;;;;;;;7.47;3.20;;;;;;;22.08;51.91;100456.53;5056242;28;20032;-64
2022/10/21 08:45:45;;;;;;;11.38;2.63;;;;;;;22.16;51.52;100469.09;5056322;28;20024;-65
2022/10/21 08:48:14;;;;;;;15.60;2.83;;;;;;;22.16;51.69;100480.84;5056300;28;20031;-65
2022/10/21 08:50:45;;;;;;;7.35;2.90;;;;;;;22.21;52.15;100486.50;5056318;28;20020;-64
2022/10/21 08:53:15;;;;;;;10.40;3.10;;;;;;;22.24;51.92;100487.97;5056180;28;20023;-64
2022/10/21 08:55:43;;;;;;;9.25;2.45;;;;;;;22.22;52.06;100473.69;5056092;28;20025;-64
2022/10/21 08:58:17;;;;;;;4.20;2.47;;;;;;;22.22;51.73;100471.78;5056094;28;20466;-63
2022/10/21 09:00:48;;;;;;;4.35;2.22;;;;;;;22.26;52.04;100489.41;5056017;28;20485;-64
2022/10/21 09:03:22;;;;;;;6.38;2.95;;;;;;;22.29;52.10;100488.16;5056013;28;20085;-64
2022/10/21 09:05:54;;;;;;;3.85;2.28;;;;;;;22.31;52.35;100505.16;5073548;28;20090;-64
2022/10/21 09:08:38;;;;;;;14.63;3.00;;;;;;;22.31;52.40;100492.34;5073683;28;20027;-68
2022/10/21 09:11:43;;;;;;;8.65;3.30;;;;;;;22.33;52.20;100506.63;5073647;28;20037;-63
2022/10/21 09:14:08;;;;;;;6.28;2.47;;;;;;;22.38;52.39;100515.00;5073692;28;20029;-65
2022/10/21 09:16:59;;;;;;;4.20;2.00;;;;;;;22.41;51.61;100498.22;5073789;28;20032;-64
2022/10/21 09:19:56;;;;;;;4.15;2.15;;;;;;;22.48;51.66;100499.03;5037348;28;20036;-65
2022/10/21 09:22:46;;;;;;;8.18;2.25;;;;;;;22.54;52.46;100508.25;5003484;28;20371;-64
2022/10/21 09:25:23;;;;;;;6.65;2.00;;;;;;;22.60;52.04;100500.03;5073108;28;20101;-64
2022/10/21 09:27:49;;;;;;;6.55;2.28;;;;;;;22.68;52.61;100503.59;5055433;28;20051;-63
2022/10/21 09:30:21;;;;;;;4.68;2.08;;;;;;;22.77;52.57;100515.97;5055578;28;20070;-64
2022/10/21 09:32:49;;;;;;;6.47;3.72;;;;;;;22.88;51.76;100501.63;5055779;28;20073;-63
2022/10/21 09:35:38;;;;;;;2.40;1.83;;;;;;;22.98;51.57;100515.66;5073542;28;20440;-64
2022/10/21 09:38:17;;;;;;;4.78;2.00;;;;;;;23.05;52.54;100519.22;5055376;28;20051;-64
2022/10/21 09:40:46;;;;;;;3.33;1.92;;;;;;;23.11;51.80;100523.81;5073200;28;20031;-64
2022/10/21 09:43:17;;;;;;;3.10;2.10;;;;;;;23.11;52.03;100521.09;5055229;28;20521;-63
2022/10/21 09:45:43;;;;;;;6.57;2.47;;;;;;;23.24;51.86;100536.56;5055576;28;20025;-64
2022/10/21 09:48:18;;;;;;;4.57;2.30;;;;;;;23.30;51.43;100524.75;5055342;28;20175;-64
2022/10/21 09:50:53;;;;;;;5.38;2.28;;;;;;;23.35;52.38;100535.84;5073219;28;20443;-64
2022/10/21 09:53:31;;;;;;;8.70;2.40;;;;;;;23.40;52.36;100534.19;5038813;28;20027;-64
2022/10/21 09:56:03;;;;;;;5.38;2.10;;;;;;;23.45;51.96;100528.88;5038889;28;20071;-63
2022/10/21 09:59:03;;;;;;;5.30;1.75;;;;;;;23.53;51.65;100541.47;5055087;28;20021;-64
2022/10/21 10:01:28;;;;;;;3.55;1.58;;;;;;;23.56;51.53;100539.09;5072437;28;20040;-65
2022/10/21 10:03:54;;;;;;;1.90;1.55;;;;;;;23.60;51.89;100537.63;5054939;28;20052;-65
2022/10/21 10:06:37;;;;;;;4.65;1.50;;;;;;;23.64;51.76;100551.69;5055119;28;20028;-65
2022/10/21 10:09:23;;;;;;;5.47;2.35;;;;;;;23.70;51.24;100559.84;5073029;28;20035;-65
2022/10/21 10:12:11;;;;;;;6.70;1.90;;;;;;;23.76;50.89;100553.50;5055063;28;20028;-65
2022/10/21 10:14:39;;;;;;;6.22;2.08;;;;;;;23.82;51.41;100550.91;5072955;28;20450;-63
2022/10/21 10:17:37;;;;;;;4.70;2.10;;;;;;;23.89;50.98;100552.56;5055080;28;20108;-65
2022/10/21 10:20:02;;;;;;;3.55;1.38;;;;;;;23.96;51.41;100552.50;5038527;28;20028;-65
2022/10/21 10:22:31;;;;;;;3.95;0.75;;;;;;;24.01;51.21;100549.94;5072869;28;20543;-65
2022/10/21 10:25:21;;;;;;;1.27;0.80;;;;;;;24.11;50.23;100558.50;5054959;28;20031;-65
2022/10/21 10:28:08;;;;;;;2.92;0.65;;;;;;;24.16;50.91;100558.69;5054836;28;20036;-63
2022/10/21 10:30:36;;;;;;;3.42;1.02;;;;;;;24.27;50.77;100555.19;5072789;28;20070;-63
2022/10/21 10:33:08;;;;;;;4.45;0.77;;;;;;;24.42;50.02;100558.44;5072751;28;20107;-63
2022/10/21 10:35:35;;;;;;;0.52;0.32;;;;;;;24.55;50.39;100552.81;5057201;28;20184;-63
2022/10/21 10:38:01;;;;;;;3.80;0.77;;;;;;;24.68;49.69;100552.66;5058716;28;20115;-63
2022/10/21 10:40:38;;;;;;;3.25;0.50;;;;;;;24.90;49.31;100542.94;5058488;28;20485;-63
2022/10/21 10:43:14;;;;;;;5.97;0.57;;;;;;;25.77;48.18;100547.03;5059073;28;20026;-63
2022/10/21 10:45:47;;;;;;;2.00;0.70;;;;;;;26.13;47.45;100536.97;5042003;28;20043;-63
2022/10/21 10:48:20;;;;;;;2.22;0.70;;;;;;;26.51;47.38;100540.91;5058569;28;20440;-63
2022/10/21 10:50:47;;;;;;;6.60;0.60;;;;;;;26.69;47.29;100539.91;5058555;28;20037;-64
2022/10/21 10:53:31;;;;;;;2.00;0.50;;;;;;;27.07;47.29;100536.66;5076304;28;20393;-63
2022/10/21 10:56:18;;;;;;;0.82;0.40;;;;;;;27.39;46.28;100539.72;5058458;28;20044;-63
2022/10/21 10:59:03;;;;;;;1.67;0.30;;;;;;;27.74;45.55;100508.25;5076230;28;20028;-63
2022/10/21 11:01:33;;;;;;;0.30;0.30;;;;;;;27.84;46.70;100521.31;5058325;28;20024;-63
2022/10/21 11:04:06;;;;;;;1.67;0.40;;;;;;;27.96;46.03;100518.50;5041428;28;20052;-63
2022/10/21 11:06:35;;;;;;;1.58;0.60;;;;;;;28.04;46.41;100516.19;5076126;28;20025;-63
2022/10/21 11:09:01;;;;;;;0.57;0.30;;;;;;;28.51;45.71;100513.84;5058182;28;20074;-63
2022/10/21 11:11:40;;;;;;;0.60;0.50;;;;;;;28.52;44.72;100511.94;5058093;28;20024;-63
2022/10/21 11:14:17;;;;;;;0.57;0.40;;;;;;;29.33;43.51;100516.59;5058104;28;20441;-63
2022/10/21 11:16:48;;;;;;;0.77;0.50;;;;;;;30.14;42.89;100509.91;5075932;28;20478;-63
2022/10/21 11:19:19;;;;;;;0.50;0.20;;;;;;;30.59;42.08;100503.88;5075824;28;20067;-64
2022/10/21 11:21:55;;;;;;;0.57;0.50;;;;;;;30.80;42.33;100496.47;5075714;28;20090;-63
2022/10/21 11:24:27;;;;;;;1.52;0.52;;;;;;;31.34;41.51;100492.25;5057855;28;20020;-64
2022/10/21 11:27:26;;;;;;;1.27;0.57;;;;;;;31.44;40.97;100491.44;5075707;28;20024;-64
2022/10/21 11:29:58;;;;;;;1.75;0.30;;;;;;;31.27;41.39;100488.91;5075648;28;20020;-63
2022/10/21 11:32:55;;;;;;;0.68;0.38;;;;;;;31.37;41.49;100475.09;5057936;28;20020;-64
2022/10/21 11:35:41;;;;;;;5.03;0.63;;;;;;;31.01;42.18;100484.44;5075731;28;20031;-64
2022/10/21 11:38:26;;;;;;;1.40;0.40;;;;;;;30.80;41.80;100485.41;5057894;28;20021;-64